Pagina principală
METAR-TAF:

METAR-TAF

Aeroporturi :

Omaha, Nebraska, Statele Unite ale Americii

Latitudine: 41-11-45N, longitudine: 096-06-44W, elevație: 320 m

Observații meteo curente

Raportul a fost făcut în urmă cu 25 de minute, la 01:35 UTC
Vânt 14 kt de la Nord-vest cu rafale de până la 24 kt
Temperatură 16°C
Umiditate 72%
Presiune 1007 hPa
Vizibilitate: 16.1 km
Nori împrăștiați la o înălțime de 2600 picior
Nori împrăștiați la o înălțime de 3200 picior
Total acoperit la o înălțime de 4800 picior

METAR: KMLE 220135Z AUTO 32014G24KT 10SM SCT026 SCT032 OVC048 16/11 A2973 RMK AO2 T01640105

Ora: 21:00 (02:00 UTC)


TAF: lipsă

Observații și prognoze meteo pentru peste 4.000 de aeroporturi (rapoarte METAR și TAF).

Stațiile disponibile sunt reprezentate pe hartă prin puncte galbene și roșii.

Țineți indicatorul mouse-ului pe punctul dorit pentru a vedea denumirea stației.

Apoi, faceți clic pentru a vedea observațiile și prognozele meteorologice.

Pentru a schimba harta: Pentru mărire, faceți clic pe butoanele verzi cu cruce neagră; pentru micșorare, pe butonul verde cu o liniuță; pentru hărți învecinate, pe săgețile verzi.


METAR-TAF: